<?xml version="1.0" encoding="UTF-8" standalone="no" ?>
<gpx xmlns="http://www.topografix.com/GPX/1/1" xmlns:xsi="http://www.w3.org/2001/XMLSchema-instance" xsi:schemaLocation="http://www.topografix.com/GPX/1/1 http://www.topografix.com/GPX/1/1/gpx.xsd" version="1.1" creator="VisuGPX - https://www.visugpx.com">
  <metadata>
    <name>15: Les corniches</name>
    <desc><![CDATA[15: Les corniches]]></desc>
  </metadata>
  <wpt lat="43.83631" lon="3.12279">
    <ele>520</ele>
    <name><![CDATA[Accueil PdC Centre]]></name>
  </wpt>
  <wpt lat="43.83657" lon="3.11798">
    <ele>530.1</ele>
    <name><![CDATA[PCD]]></name>
  </wpt>
  <wpt lat="43.83852" lon="3.10886">
    <ele>545</ele>
    <name><![CDATA[SBA]]></name>
  </wpt>
  <wpt lat="43.84037" lon="3.10487">
    <ele>550</ele>
    <name><![CDATA[MDF]]></name>
  </wpt>
  <wpt lat="43.83778" lon="3.10063">
    <ele>589.9</ele>
    <name><![CDATA[CIA]]></name>
  </wpt>
  <wpt lat="43.83921" lon="3.09874">
    <ele>600</ele>
    <name><![CDATA[CIB]]></name>
  </wpt>
  <wpt lat="43.83901" lon="3.09634">
    <ele>600</ele>
    <name><![CDATA[CIC]]></name>
  </wpt>
  <wpt lat="43.83949" lon="3.09734">
    <ele>600</ele>
    <name><![CDATA[RRC]]></name>
  </wpt>
  <wpt lat="43.84034" lon="3.10182">
    <ele>600</ele>
    <name><![CDATA[CID]]></name>
  </wpt>
  <wpt lat="43.84379" lon="3.0956">
    <ele>589.9</ele>
    <name><![CDATA[BFA]]></name>
  </wpt>
  <wpt lat="43.84277" lon="3.09269">
    <ele>690.1</ele>
    <name><![CDATA[BFB]]></name>
  </wpt>
  <wpt lat="43.84101" lon="3.0918">
    <ele>715.1</ele>
    <name><![CDATA[BFC]]></name>
  </wpt>
  <wpt lat="43.84028" lon="3.0936">
    <ele>725</ele>
    <name><![CDATA[CSC]]></name>
  </wpt>
  <wpt lat="43.83553" lon="3.0884">
    <ele>690.1</ele>
    <name><![CDATA[RRD]]></name>
  </wpt>
  <wpt lat="43.83513" lon="3.08833">
    <ele>685.1</ele>
    <name><![CDATA[CSD]]></name>
  </wpt>
  <wpt lat="43.83589" lon="3.09157">
    <ele>665.1</ele>
    <name><![CDATA[CSE]]></name>
  </wpt>
  <wpt lat="43.83411" lon="3.09111">
    <ele>660.1</ele>
    <name><![CDATA[CSF]]></name>
  </wpt>
  <wpt lat="43.83731" lon="3.09779">
    <ele>694.9</ele>
    <name><![CDATA[CSG]]></name>
  </wpt>
  <wpt lat="43.8329" lon="3.09628">
    <ele>700</ele>
    <name><![CDATA[CSH]]></name>
  </wpt>
  <wpt lat="43.83381" lon="3.09839">
    <ele>705</ele>
    <name><![CDATA[CSI]]></name>
  </wpt>
  <wpt lat="43.83207" lon="3.09912">
    <ele>680</ele>
    <name><![CDATA[CSJ]]></name>
  </wpt>
  <wpt lat="43.83477" lon="3.10131">
    <ele>705</ele>
    <name><![CDATA[BSA]]></name>
  </wpt>
  <wpt lat="43.83407" lon="3.10217">
    <ele>710.1</ele>
    <name><![CDATA[BSB]]></name>
  </wpt>
  <wpt lat="43.83494" lon="3.10351">
    <ele>715.1</ele>
    <name><![CDATA[BSC]]></name>
  </wpt>
  <wpt lat="43.83395" lon="3.10485">
    <ele>700</ele>
    <name><![CDATA[SBC]]></name>
  </wpt>
  <wpt lat="43.83393" lon="3.10913">
    <ele>690</ele>
    <name><![CDATA[BRG]]></name>
  </wpt>
  <wpt lat="43.83616" lon="3.1138">
    <ele>589.9</ele>
    <name><![CDATA[BRB]]></name>
  </wpt>
  <wpt lat="43.83618" lon="3.11496">
    <ele>569.9</ele>
    <name><![CDATA[BRA]]></name>
  </wpt>
  <trk>
    <name><![CDATA[RoTra 15 PdC]]></name>
    <trkseg>
      <trkpt lat="43.83657" lon="3.11795">
        <ele>535</ele>
        <time>2010-01-01T00:00:00Z</time>
      </trkpt>
      <trkpt lat="43.83657" lon="3.11736">
        <ele>536</ele>
        <time>2010-01-01T00:01:10Z</time>
      </trkpt>
      <trkpt lat="43.83653" lon="3.11697">
        <ele>538</ele>
        <time>2010-01-01T00:01:58Z</time>
      </trkpt>
      <trkpt lat="43.83668" lon="3.11564">
        <ele>543</ele>
        <time>2010-01-01T00:04:38Z</time>
      </trkpt>
      <trkpt lat="43.83684" lon="3.11478">
        <ele>549</ele>
        <time>2010-01-01T00:06:24Z</time>
      </trkpt>
      <trkpt lat="43.83773" lon="3.11139">
        <ele>558</ele>
        <time>2010-01-01T00:13:35Z</time>
      </trkpt>
      <trkpt lat="43.83772" lon="3.11082">
        <ele>561</ele>
        <time>2010-01-01T00:14:43Z</time>
      </trkpt>
      <trkpt lat="43.83821" lon="3.10925">
        <ele>554</ele>
        <time>2010-01-01T00:18:06Z</time>
      </trkpt>
      <trkpt lat="43.83851" lon="3.10883">
        <ele>555</ele>
        <time>2010-01-01T00:19:17Z</time>
      </trkpt>
      <trkpt lat="43.83853" lon="3.10881">
        <ele>555</ele>
        <time>2010-01-01T00:19:21Z</time>
      </trkpt>
      <trkpt lat="43.83897" lon="3.10809">
        <ele>556</ele>
        <time>2010-01-01T00:21:13Z</time>
      </trkpt>
      <trkpt lat="43.83932" lon="3.10747">
        <ele>558</ele>
        <time>2010-01-01T00:22:48Z</time>
      </trkpt>
      <trkpt lat="43.8405" lon="3.10519">
        <ele>564</ele>
        <time>2010-01-01T00:28:23Z</time>
      </trkpt>
      <trkpt lat="43.84048" lon="3.10503">
        <ele>563</ele>
        <time>2010-01-01T00:28:41Z</time>
      </trkpt>
      <trkpt lat="43.84038" lon="3.10488">
        <ele>564</ele>
        <time>2010-01-01T00:29:06Z</time>
      </trkpt>
      <trkpt lat="43.84037" lon="3.10487">
        <ele>564</ele>
        <time>2010-01-01T00:29:08Z</time>
      </trkpt>
      <trkpt lat="43.84025" lon="3.10475">
        <ele>564</ele>
        <time>2010-01-01T00:29:32Z</time>
      </trkpt>
      <trkpt lat="43.84015" lon="3.10458">
        <ele>565</ele>
        <time>2010-01-01T00:29:58Z</time>
      </trkpt>
      <trkpt lat="43.83962" lon="3.10292">
        <ele>586</ele>
        <time>2010-01-01T00:33:35Z</time>
      </trkpt>
      <trkpt lat="43.83931" lon="3.10183">
        <ele>584</ele>
        <time>2010-01-01T00:35:55Z</time>
      </trkpt>
      <trkpt lat="43.83913" lon="3.1014">
        <ele>582</ele>
        <time>2010-01-01T00:36:54Z</time>
      </trkpt>
      <trkpt lat="43.83897" lon="3.10125">
        <ele>585</ele>
        <time>2010-01-01T00:37:25Z</time>
      </trkpt>
      <trkpt lat="43.83781" lon="3.10066">
        <ele>605</ele>
        <time>2010-01-01T00:40:51Z</time>
      </trkpt>
      <trkpt lat="43.83779" lon="3.10068">
        <ele>605</ele>
        <time>2010-01-01T00:40:54Z</time>
      </trkpt>
      <trkpt lat="43.83778" lon="3.10066">
        <ele>605</ele>
        <time>2010-01-01T00:40:57Z</time>
      </trkpt>
      <trkpt lat="43.83772" lon="3.10063">
        <ele>606</ele>
        <time>2010-01-01T00:41:06Z</time>
      </trkpt>
      <trkpt lat="43.8377" lon="3.1005">
        <ele>608</ele>
        <time>2010-01-01T00:41:22Z</time>
      </trkpt>
      <trkpt lat="43.83776" lon="3.10041">
        <ele>609</ele>
        <time>2010-01-01T00:41:38Z</time>
      </trkpt>
      <trkpt lat="43.83891" lon="3.10011">
        <ele>597</ele>
        <time>2010-01-01T00:44:51Z</time>
      </trkpt>
      <trkpt lat="43.83905" lon="3.09988">
        <ele>597</ele>
        <time>2010-01-01T00:45:27Z</time>
      </trkpt>
      <trkpt lat="43.83923" lon="3.09909">
        <ele>603</ele>
        <time>2010-01-01T00:47:05Z</time>
      </trkpt>
      <trkpt lat="43.83923" lon="3.09876">
        <ele>605</ele>
        <time>2010-01-01T00:47:44Z</time>
      </trkpt>
      <trkpt lat="43.83923" lon="3.09874">
        <ele>605</ele>
        <time>2010-01-01T00:47:46Z</time>
      </trkpt>
      <trkpt lat="43.83923" lon="3.09844">
        <ele>607</ele>
        <time>2010-01-01T00:48:22Z</time>
      </trkpt>
      <trkpt lat="43.83915" lon="3.09767">
        <ele>608</ele>
        <time>2010-01-01T00:49:55Z</time>
      </trkpt>
      <trkpt lat="43.83909" lon="3.09697">
        <ele>612</ele>
        <time>2010-01-01T00:51:19Z</time>
      </trkpt>
      <trkpt lat="43.83899" lon="3.09639">
        <ele>620</ele>
        <time>2010-01-01T00:52:30Z</time>
      </trkpt>
      <trkpt lat="43.83901" lon="3.09634">
        <ele>620</ele>
        <time>2010-01-01T00:52:37Z</time>
      </trkpt>
      <trkpt lat="43.83906" lon="3.09627">
        <ele>619</ele>
        <time>2010-01-01T00:52:49Z</time>
      </trkpt>
      <trkpt lat="43.83915" lon="3.09625">
        <ele>618</ele>
        <time>2010-01-01T00:53:03Z</time>
      </trkpt>
      <trkpt lat="43.83927" lon="3.09637">
        <ele>619</ele>
        <time>2010-01-01T00:53:27Z</time>
      </trkpt>
      <trkpt lat="43.83941" lon="3.09677">
        <ele>618</ele>
        <time>2010-01-01T00:54:21Z</time>
      </trkpt>
      <trkpt lat="43.83962" lon="3.09761">
        <ele>617</ele>
        <time>2010-01-01T00:56:06Z</time>
      </trkpt>
      <trkpt lat="43.84003" lon="3.09892">
        <ele>607</ele>
        <time>2010-01-01T00:58:57Z</time>
      </trkpt>
      <trkpt lat="43.84007" lon="3.09939">
        <ele>602</ele>
        <time>2010-01-01T00:59:54Z</time>
      </trkpt>
      <trkpt lat="43.84005" lon="3.10057">
        <ele>593</ele>
        <time>2010-01-01T01:02:15Z</time>
      </trkpt>
      <trkpt lat="43.84031" lon="3.10178">
        <ele>582</ele>
        <time>2010-01-01T01:04:45Z</time>
      </trkpt>
      <trkpt lat="43.84037" lon="3.10183">
        <ele>581</ele>
        <time>2010-01-01T01:04:57Z</time>
      </trkpt>
      <trkpt lat="43.84037" lon="3.10183">
        <ele>581</ele>
        <time>2010-01-01T01:04:58Z</time>
      </trkpt>
      <trkpt lat="43.84043" lon="3.10177">
        <ele>581</ele>
        <time>2010-01-01T01:05:09Z</time>
      </trkpt>
      <trkpt lat="43.84093" lon="3.10022">
        <ele>598</ele>
        <time>2010-01-01T01:08:32Z</time>
      </trkpt>
      <trkpt lat="43.84132" lon="3.09936">
        <ele>599</ele>
        <time>2010-01-01T01:10:34Z</time>
      </trkpt>
      <trkpt lat="43.84194" lon="3.09817">
        <ele>605</ele>
        <time>2010-01-01T01:13:28Z</time>
      </trkpt>
      <trkpt lat="43.84225" lon="3.09772">
        <ele>606</ele>
        <time>2010-01-01T01:14:42Z</time>
      </trkpt>
      <trkpt lat="43.84335" lon="3.09664">
        <ele>596</ele>
        <time>2010-01-01T01:18:25Z</time>
      </trkpt>
      <trkpt lat="43.8436" lon="3.09625">
        <ele>599</ele>
        <time>2010-01-01T01:19:28Z</time>
      </trkpt>
      <trkpt lat="43.84366" lon="3.0961">
        <ele>601</ele>
        <time>2010-01-01T01:19:48Z</time>
      </trkpt>
      <trkpt lat="43.84371" lon="3.0957">
        <ele>607</ele>
        <time>2010-01-01T01:20:37Z</time>
      </trkpt>
      <trkpt lat="43.84376" lon="3.09564">
        <ele>606</ele>
        <time>2010-01-01T01:20:48Z</time>
      </trkpt>
      <trkpt lat="43.84377" lon="3.09562">
        <ele>606</ele>
        <time>2010-01-01T01:20:51Z</time>
      </trkpt>
      <trkpt lat="43.84359" lon="3.09556">
        <ele>614</ele>
        <time>2010-01-01T01:21:22Z</time>
      </trkpt>
      <trkpt lat="43.84344" lon="3.09529">
        <ele>624</ele>
        <time>2010-01-01T01:22:03Z</time>
      </trkpt>
      <trkpt lat="43.84311" lon="3.09445">
        <ele>651</ele>
        <time>2010-01-01T01:23:57Z</time>
      </trkpt>
      <trkpt lat="43.84271" lon="3.09375">
        <ele>672</ele>
        <time>2010-01-01T01:25:42Z</time>
      </trkpt>
      <trkpt lat="43.8427" lon="3.09287">
        <ele>687</ele>
        <time>2010-01-01T01:27:27Z</time>
      </trkpt>
      <trkpt lat="43.84279" lon="3.09268">
        <ele>688</ele>
        <time>2010-01-01T01:27:55Z</time>
      </trkpt>
      <trkpt lat="43.84278" lon="3.09269">
        <ele>688</ele>
        <time>2010-01-01T01:27:56Z</time>
      </trkpt>
      <trkpt lat="43.84269" lon="3.09273">
        <ele>690</ele>
        <time>2010-01-01T01:28:12Z</time>
      </trkpt>
      <trkpt lat="43.84254" lon="3.09287">
        <ele>691</ele>
        <time>2010-01-01T01:28:43Z</time>
      </trkpt>
      <trkpt lat="43.84232" lon="3.0928">
        <ele>697</ele>
        <time>2010-01-01T01:29:20Z</time>
      </trkpt>
      <trkpt lat="43.8422" lon="3.09269">
        <ele>701</ele>
        <time>2010-01-01T01:29:44Z</time>
      </trkpt>
      <trkpt lat="43.84207" lon="3.09263">
        <ele>704</ele>
        <time>2010-01-01T01:30:06Z</time>
      </trkpt>
      <trkpt lat="43.84198" lon="3.09262">
        <ele>705</ele>
        <time>2010-01-01T01:30:21Z</time>
      </trkpt>
      <trkpt lat="43.84176" lon="3.0924">
        <ele>710</ele>
        <time>2010-01-01T01:31:06Z</time>
      </trkpt>
      <trkpt lat="43.84164" lon="3.09238">
        <ele>711</ele>
        <time>2010-01-01T01:31:26Z</time>
      </trkpt>
      <trkpt lat="43.84147" lon="3.09219">
        <ele>712</ele>
        <time>2010-01-01T01:32:02Z</time>
      </trkpt>
      <trkpt lat="43.84127" lon="3.09185">
        <ele>711</ele>
        <time>2010-01-01T01:32:55Z</time>
      </trkpt>
      <trkpt lat="43.84118" lon="3.09178">
        <ele>711</ele>
        <time>2010-01-01T01:33:12Z</time>
      </trkpt>
      <trkpt lat="43.84102" lon="3.09178">
        <ele>712</ele>
        <time>2010-01-01T01:33:38Z</time>
      </trkpt>
      <trkpt lat="43.84104" lon="3.09181">
        <ele>712</ele>
        <time>2010-01-01T01:33:42Z</time>
      </trkpt>
      <trkpt lat="43.84116" lon="3.09201">
        <ele>713</ele>
        <time>2010-01-01T01:34:13Z</time>
      </trkpt>
      <trkpt lat="43.84119" lon="3.09216">
        <ele>714</ele>
        <time>2010-01-01T01:34:32Z</time>
      </trkpt>
      <trkpt lat="43.84117" lon="3.09245">
        <ele>717</ele>
        <time>2010-01-01T01:35:07Z</time>
      </trkpt>
      <trkpt lat="43.84099" lon="3.09288">
        <ele>719</ele>
        <time>2010-01-01T01:36:05Z</time>
      </trkpt>
      <trkpt lat="43.84086" lon="3.09317">
        <ele>721</ele>
        <time>2010-01-01T01:36:47Z</time>
      </trkpt>
      <trkpt lat="43.84048" lon="3.09358">
        <ele>718</ele>
        <time>2010-01-01T01:38:05Z</time>
      </trkpt>
      <trkpt lat="43.84041" lon="3.09363">
        <ele>717</ele>
        <time>2010-01-01T01:38:18Z</time>
      </trkpt>
      <trkpt lat="43.84034" lon="3.09365">
        <ele>716</ele>
        <time>2010-01-01T01:38:32Z</time>
      </trkpt>
      <trkpt lat="43.84031" lon="3.09365">
        <ele>715</ele>
        <time>2010-01-01T01:38:35Z</time>
      </trkpt>
      <trkpt lat="43.84031" lon="3.09365">
        <ele>715</ele>
        <time>2010-01-01T01:38:37Z</time>
      </trkpt>
      <trkpt lat="43.8402" lon="3.09361">
        <ele>715</ele>
        <time>2010-01-01T01:38:54Z</time>
      </trkpt>
      <trkpt lat="43.83997" lon="3.09336">
        <ele>717</ele>
        <time>2010-01-01T01:39:43Z</time>
      </trkpt>
      <trkpt lat="43.83972" lon="3.09281">
        <ele>716</ele>
        <time>2010-01-01T01:41:01Z</time>
      </trkpt>
      <trkpt lat="43.83906" lon="3.09198">
        <ele>719</ele>
        <time>2010-01-01T01:43:28Z</time>
      </trkpt>
      <trkpt lat="43.83882" lon="3.0918">
        <ele>720</ele>
        <time>2010-01-01T01:44:13Z</time>
      </trkpt>
      <trkpt lat="43.83867" lon="3.09176">
        <ele>720</ele>
        <time>2010-01-01T01:44:38Z</time>
      </trkpt>
      <trkpt lat="43.83851" lon="3.09185">
        <ele>718</ele>
        <time>2010-01-01T01:45:06Z</time>
      </trkpt>
      <trkpt lat="43.8384" lon="3.09205">
        <ele>713</ele>
        <time>2010-01-01T01:45:36Z</time>
      </trkpt>
      <trkpt lat="43.83829" lon="3.09212">
        <ele>709</ele>
        <time>2010-01-01T01:45:56Z</time>
      </trkpt>
      <trkpt lat="43.83805" lon="3.09199">
        <ele>705</ele>
        <time>2010-01-01T01:46:39Z</time>
      </trkpt>
      <trkpt lat="43.83791" lon="3.09183">
        <ele>704</ele>
        <time>2010-01-01T01:47:09Z</time>
      </trkpt>
      <trkpt lat="43.83711" lon="3.08983">
        <ele>701</ele>
        <time>2010-01-01T01:51:42Z</time>
      </trkpt>
      <trkpt lat="43.83696" lon="3.08956">
        <ele>700</ele>
        <time>2010-01-01T01:52:23Z</time>
      </trkpt>
      <trkpt lat="43.83681" lon="3.08936">
        <ele>698</ele>
        <time>2010-01-01T01:52:57Z</time>
      </trkpt>
      <trkpt lat="43.83604" lon="3.08863">
        <ele>697</ele>
        <time>2010-01-01T01:55:32Z</time>
      </trkpt>
      <trkpt lat="43.83568" lon="3.0884">
        <ele>696</ele>
        <time>2010-01-01T01:56:38Z</time>
      </trkpt>
      <trkpt lat="43.83532" lon="3.08822">
        <ele>699</ele>
        <time>2010-01-01T01:57:40Z</time>
      </trkpt>
      <trkpt lat="43.83518" lon="3.08824">
        <ele>697</ele>
        <time>2010-01-01T01:58:03Z</time>
      </trkpt>
      <trkpt lat="43.83515" lon="3.08832">
        <ele>696</ele>
        <time>2010-01-01T01:58:15Z</time>
      </trkpt>
      <trkpt lat="43.83514" lon="3.08835">
        <ele>696</ele>
        <time>2010-01-01T01:58:18Z</time>
      </trkpt>
      <trkpt lat="43.83515" lon="3.08843">
        <ele>696</ele>
        <time>2010-01-01T01:58:27Z</time>
      </trkpt>
      <trkpt lat="43.83521" lon="3.08851">
        <ele>696</ele>
        <time>2010-01-01T01:58:41Z</time>
      </trkpt>
      <trkpt lat="43.83537" lon="3.08876">
        <ele>694</ele>
        <time>2010-01-01T01:59:21Z</time>
      </trkpt>
      <trkpt lat="43.83578" lon="3.08956">
        <ele>682</ele>
        <time>2010-01-01T02:01:18Z</time>
      </trkpt>
      <trkpt lat="43.83602" lon="3.09005">
        <ele>680</ele>
        <time>2010-01-01T02:02:28Z</time>
      </trkpt>
      <trkpt lat="43.83609" lon="3.09035">
        <ele>678</ele>
        <time>2010-01-01T02:03:06Z</time>
      </trkpt>
      <trkpt lat="43.83613" lon="3.09087">
        <ele>674</ele>
        <time>2010-01-01T02:04:09Z</time>
      </trkpt>
      <trkpt lat="43.83607" lon="3.09136">
        <ele>666</ele>
        <time>2010-01-01T02:05:07Z</time>
      </trkpt>
      <trkpt lat="43.83601" lon="3.0915">
        <ele>663</ele>
        <time>2010-01-01T02:05:27Z</time>
      </trkpt>
      <trkpt lat="43.83592" lon="3.09157">
        <ele>662</ele>
        <time>2010-01-01T02:05:45Z</time>
      </trkpt>
      <trkpt lat="43.8359" lon="3.09157">
        <ele>662</ele>
        <time>2010-01-01T02:05:47Z</time>
      </trkpt>
      <trkpt lat="43.83578" lon="3.09155">
        <ele>663</ele>
        <time>2010-01-01T02:06:07Z</time>
      </trkpt>
      <trkpt lat="43.83502" lon="3.09125">
        <ele>672</ele>
        <time>2010-01-01T02:08:18Z</time>
      </trkpt>
      <trkpt lat="43.83444" lon="3.09103">
        <ele>676</ele>
        <time>2010-01-01T02:09:58Z</time>
      </trkpt>
      <trkpt lat="43.83422" lon="3.09101">
        <ele>675</ele>
        <time>2010-01-01T02:10:34Z</time>
      </trkpt>
      <trkpt lat="43.83416" lon="3.09109">
        <ele>674</ele>
        <time>2010-01-01T02:10:47Z</time>
      </trkpt>
      <trkpt lat="43.83415" lon="3.09122">
        <ele>673</ele>
        <time>2010-01-01T02:11:02Z</time>
      </trkpt>
      <trkpt lat="43.83415" lon="3.09123">
        <ele>673</ele>
        <time>2010-01-01T02:11:04Z</time>
      </trkpt>
      <trkpt lat="43.83416" lon="3.09136">
        <ele>672</ele>
        <time>2010-01-01T02:11:20Z</time>
      </trkpt>
      <trkpt lat="43.83429" lon="3.0915">
        <ele>670</ele>
        <time>2010-01-01T02:11:47Z</time>
      </trkpt>
      <trkpt lat="43.83466" lon="3.09201">
        <ele>669</ele>
        <time>2010-01-01T02:13:14Z</time>
      </trkpt>
      <trkpt lat="43.83521" lon="3.09283">
        <ele>673</ele>
        <time>2010-01-01T02:15:27Z</time>
      </trkpt>
      <trkpt lat="43.83558" lon="3.09326">
        <ele>673</ele>
        <time>2010-01-01T02:16:47Z</time>
      </trkpt>
      <trkpt lat="43.83578" lon="3.09358">
        <ele>675</ele>
        <time>2010-01-01T02:17:38Z</time>
      </trkpt>
      <trkpt lat="43.83596" lon="3.09415">
        <ele>683</ele>
        <time>2010-01-01T02:18:51Z</time>
      </trkpt>
      <trkpt lat="43.83598" lon="3.09425">
        <ele>685</ele>
        <time>2010-01-01T02:19:04Z</time>
      </trkpt>
      <trkpt lat="43.83604" lon="3.09428">
        <ele>683</ele>
        <time>2010-01-01T02:19:16Z</time>
      </trkpt>
      <trkpt lat="43.83665" lon="3.09534">
        <ele>687</ele>
        <time>2010-01-01T02:21:57Z</time>
      </trkpt>
      <trkpt lat="43.83709" lon="3.09638">
        <ele>691</ele>
        <time>2010-01-01T02:24:21Z</time>
      </trkpt>
      <trkpt lat="43.83727" lon="3.09682">
        <ele>692</ele>
        <time>2010-01-01T02:25:21Z</time>
      </trkpt>
      <trkpt lat="43.83736" lon="3.09716">
        <ele>693</ele>
        <time>2010-01-01T02:26:04Z</time>
      </trkpt>
      <trkpt lat="43.83735" lon="3.09756">
        <ele>694</ele>
        <time>2010-01-01T02:26:52Z</time>
      </trkpt>
      <trkpt lat="43.8373" lon="3.09781">
        <ele>691</ele>
        <time>2010-01-01T02:27:23Z</time>
      </trkpt>
      <trkpt lat="43.83724" lon="3.09786">
        <ele>690</ele>
        <time>2010-01-01T02:27:34Z</time>
      </trkpt>
      <trkpt lat="43.83723" lon="3.09787">
        <ele>690</ele>
        <time>2010-01-01T02:27:36Z</time>
      </trkpt>
      <trkpt lat="43.83706" lon="3.0978">
        <ele>692</ele>
        <time>2010-01-01T02:28:05Z</time>
      </trkpt>
      <trkpt lat="43.83641" lon="3.09718">
        <ele>704</ele>
        <time>2010-01-01T02:30:16Z</time>
      </trkpt>
      <trkpt lat="43.83593" lon="3.09674">
        <ele>713</ele>
        <time>2010-01-01T02:31:52Z</time>
      </trkpt>
      <trkpt lat="43.83557" lon="3.09658">
        <ele>714</ele>
        <time>2010-01-01T02:32:55Z</time>
      </trkpt>
      <trkpt lat="43.83474" lon="3.09664">
        <ele>709</ele>
        <time>2010-01-01T02:35:11Z</time>
      </trkpt>
      <trkpt lat="43.83442" lon="3.09657">
        <ele>708</ele>
        <time>2010-01-01T02:36:05Z</time>
      </trkpt>
      <trkpt lat="43.83296" lon="3.09617">
        <ele>715</ele>
        <time>2010-01-01T02:40:11Z</time>
      </trkpt>
      <trkpt lat="43.83291" lon="3.09623">
        <ele>714</ele>
        <time>2010-01-01T02:40:22Z</time>
      </trkpt>
      <trkpt lat="43.83291" lon="3.09624">
        <ele>714</ele>
        <time>2010-01-01T02:40:23Z</time>
      </trkpt>
      <trkpt lat="43.83289" lon="3.09635">
        <ele>713</ele>
        <time>2010-01-01T02:40:36Z</time>
      </trkpt>
      <trkpt lat="43.83312" lon="3.0969">
        <ele>705</ele>
        <time>2010-01-01T02:41:53Z</time>
      </trkpt>
      <trkpt lat="43.83338" lon="3.09733">
        <ele>700</ele>
        <time>2010-01-01T02:42:59Z</time>
      </trkpt>
      <trkpt lat="43.83377" lon="3.09808">
        <ele>687</ele>
        <time>2010-01-01T02:44:49Z</time>
      </trkpt>
      <trkpt lat="43.83379" lon="3.09827">
        <ele>686</ele>
        <time>2010-01-01T02:45:12Z</time>
      </trkpt>
      <trkpt lat="43.83377" lon="3.09839">
        <ele>685</ele>
        <time>2010-01-01T02:45:27Z</time>
      </trkpt>
      <trkpt lat="43.83377" lon="3.09841">
        <ele>685</ele>
        <time>2010-01-01T02:45:29Z</time>
      </trkpt>
      <trkpt lat="43.83372" lon="3.09847">
        <ele>685</ele>
        <time>2010-01-01T02:45:40Z</time>
      </trkpt>
      <trkpt lat="43.8334" lon="3.09862">
        <ele>689</ele>
        <time>2010-01-01T02:46:34Z</time>
      </trkpt>
      <trkpt lat="43.8334" lon="3.09861">
        <ele>690</ele>
        <time>2010-01-01T02:46:36Z</time>
      </trkpt>
      <trkpt lat="43.83285" lon="3.09868">
        <ele>692</ele>
        <time>2010-01-01T02:48:07Z</time>
      </trkpt>
      <trkpt lat="43.83252" lon="3.0988">
        <ele>692</ele>
        <time>2010-01-01T02:49:02Z</time>
      </trkpt>
      <trkpt lat="43.83228" lon="3.09872">
        <ele>696</ele>
        <time>2010-01-01T02:49:44Z</time>
      </trkpt>
      <trkpt lat="43.83206" lon="3.09875">
        <ele>698</ele>
        <time>2010-01-01T02:50:21Z</time>
      </trkpt>
      <trkpt lat="43.83199" lon="3.09883">
        <ele>698</ele>
        <time>2010-01-01T02:50:36Z</time>
      </trkpt>
      <trkpt lat="43.83197" lon="3.09894">
        <ele>698</ele>
        <time>2010-01-01T02:50:50Z</time>
      </trkpt>
      <trkpt lat="43.83202" lon="3.09904">
        <ele>697</ele>
        <time>2010-01-01T02:51:04Z</time>
      </trkpt>
      <trkpt lat="43.8321" lon="3.09915">
        <ele>694</ele>
        <time>2010-01-01T02:51:23Z</time>
      </trkpt>
      <trkpt lat="43.8321" lon="3.09915">
        <ele>694</ele>
        <time>2010-01-01T02:51:24Z</time>
      </trkpt>
      <trkpt lat="43.83213" lon="3.09922">
        <ele>695</ele>
        <time>2010-01-01T02:51:33Z</time>
      </trkpt>
      <trkpt lat="43.83244" lon="3.09964">
        <ele>694</ele>
        <time>2010-01-01T02:52:45Z</time>
      </trkpt>
      <trkpt lat="43.83287" lon="3.09997">
        <ele>692</ele>
        <time>2010-01-01T02:54:06Z</time>
      </trkpt>
      <trkpt lat="43.83347" lon="3.10037">
        <ele>695</ele>
        <time>2010-01-01T02:55:57Z</time>
      </trkpt>
      <trkpt lat="43.83381" lon="3.10059">
        <ele>697</ele>
        <time>2010-01-01T02:56:58Z</time>
      </trkpt>
      <trkpt lat="43.8345" lon="3.10095">
        <ele>694</ele>
        <time>2010-01-01T02:59:00Z</time>
      </trkpt>
      <trkpt lat="43.83462" lon="3.10104">
        <ele>693</ele>
        <time>2010-01-01T02:59:24Z</time>
      </trkpt>
      <trkpt lat="43.83472" lon="3.10116">
        <ele>692</ele>
        <time>2010-01-01T02:59:45Z</time>
      </trkpt>
      <trkpt lat="43.83473" lon="3.10132">
        <ele>694</ele>
        <time>2010-01-01T03:00:04Z</time>
      </trkpt>
      <trkpt lat="43.83473" lon="3.10134">
        <ele>694</ele>
        <time>2010-01-01T03:00:06Z</time>
      </trkpt>
      <trkpt lat="43.8346" lon="3.10158">
        <ele>700</ele>
        <time>2010-01-01T03:00:43Z</time>
      </trkpt>
      <trkpt lat="43.83442" lon="3.10167">
        <ele>705</ele>
        <time>2010-01-01T03:01:15Z</time>
      </trkpt>
      <trkpt lat="43.83411" lon="3.10205">
        <ele>712</ele>
        <time>2010-01-01T03:02:23Z</time>
      </trkpt>
      <trkpt lat="43.83408" lon="3.10211">
        <ele>713</ele>
        <time>2010-01-01T03:02:32Z</time>
      </trkpt>
      <trkpt lat="43.83409" lon="3.10218">
        <ele>713</ele>
        <time>2010-01-01T03:02:39Z</time>
      </trkpt>
      <trkpt lat="43.83409" lon="3.10219">
        <ele>713</ele>
        <time>2010-01-01T03:02:41Z</time>
      </trkpt>
      <trkpt lat="43.83411" lon="3.10226">
        <ele>713</ele>
        <time>2010-01-01T03:02:51Z</time>
      </trkpt>
      <trkpt lat="43.83437" lon="3.10235">
        <ele>709</ele>
        <time>2010-01-01T03:03:34Z</time>
      </trkpt>
      <trkpt lat="43.83464" lon="3.10268">
        <ele>707</ele>
        <time>2010-01-01T03:04:34Z</time>
      </trkpt>
      <trkpt lat="43.83476" lon="3.10292">
        <ele>708</ele>
        <time>2010-01-01T03:05:09Z</time>
      </trkpt>
      <trkpt lat="43.83491" lon="3.10336">
        <ele>711</ele>
        <time>2010-01-01T03:06:07Z</time>
      </trkpt>
      <trkpt lat="43.83489" lon="3.10354">
        <ele>711</ele>
        <time>2010-01-01T03:06:29Z</time>
      </trkpt>
      <trkpt lat="43.83488" lon="3.10355">
        <ele>711</ele>
        <time>2010-01-01T03:06:30Z</time>
      </trkpt>
      <trkpt lat="43.83476" lon="3.10415">
        <ele>709</ele>
        <time>2010-01-01T03:07:45Z</time>
      </trkpt>
      <trkpt lat="43.83444" lon="3.10414">
        <ele>710</ele>
        <time>2010-01-01T03:08:37Z</time>
      </trkpt>
      <trkpt lat="43.83436" lon="3.10419">
        <ele>710</ele>
        <time>2010-01-01T03:08:52Z</time>
      </trkpt>
      <trkpt lat="43.83431" lon="3.10433">
        <ele>709</ele>
        <time>2010-01-01T03:09:11Z</time>
      </trkpt>
      <trkpt lat="43.83413" lon="3.10457">
        <ele>707</ele>
        <time>2010-01-01T03:09:52Z</time>
      </trkpt>
      <trkpt lat="43.83418" lon="3.10473">
        <ele>705</ele>
        <time>2010-01-01T03:10:12Z</time>
      </trkpt>
      <trkpt lat="43.83414" lon="3.1048">
        <ele>705</ele>
        <time>2010-01-01T03:10:23Z</time>
      </trkpt>
      <trkpt lat="43.83402" lon="3.10473">
        <ele>708</ele>
        <time>2010-01-01T03:10:46Z</time>
      </trkpt>
      <trkpt lat="43.83397" lon="3.1048">
        <ele>708</ele>
        <time>2010-01-01T03:10:57Z</time>
      </trkpt>
      <trkpt lat="43.83397" lon="3.10481">
        <ele>708</ele>
        <time>2010-01-01T03:10:58Z</time>
      </trkpt>
      <trkpt lat="43.83389" lon="3.10513">
        <ele>707</ele>
        <time>2010-01-01T03:11:38Z</time>
      </trkpt>
      <trkpt lat="43.83403" lon="3.10559">
        <ele>702</ele>
        <time>2010-01-01T03:12:38Z</time>
      </trkpt>
      <trkpt lat="43.83417" lon="3.10617">
        <ele>697</ele>
        <time>2010-01-01T03:13:50Z</time>
      </trkpt>
      <trkpt lat="43.83408" lon="3.10663">
        <ele>700</ele>
        <time>2010-01-01T03:14:48Z</time>
      </trkpt>
      <trkpt lat="43.83411" lon="3.10771">
        <ele>701</ele>
        <time>2010-01-01T03:16:57Z</time>
      </trkpt>
      <trkpt lat="43.83398" lon="3.10854">
        <ele>696</ele>
        <time>2010-01-01T03:18:39Z</time>
      </trkpt>
      <trkpt lat="43.83394" lon="3.10908">
        <ele>688</ele>
        <time>2010-01-01T03:19:44Z</time>
      </trkpt>
      <trkpt lat="43.83394" lon="3.10913">
        <ele>688</ele>
        <time>2010-01-01T03:19:49Z</time>
      </trkpt>
      <trkpt lat="43.8339" lon="3.10918">
        <ele>686</ele>
        <time>2010-01-01T03:19:57Z</time>
      </trkpt>
      <trkpt lat="43.83386" lon="3.10917">
        <ele>685</ele>
        <time>2010-01-01T03:20:05Z</time>
      </trkpt>
      <trkpt lat="43.83385" lon="3.10926">
        <ele>683</ele>
        <time>2010-01-01T03:20:15Z</time>
      </trkpt>
      <trkpt lat="43.83408" lon="3.10977">
        <ele>678</ele>
        <time>2010-01-01T03:21:27Z</time>
      </trkpt>
      <trkpt lat="43.83424" lon="3.1102">
        <ele>671</ele>
        <time>2010-01-01T03:22:25Z</time>
      </trkpt>
      <trkpt lat="43.83451" lon="3.11073">
        <ele>664</ele>
        <time>2010-01-01T03:23:42Z</time>
      </trkpt>
      <trkpt lat="43.83538" lon="3.11261">
        <ele>618</ele>
        <time>2010-01-01T03:28:09Z</time>
      </trkpt>
      <trkpt lat="43.83556" lon="3.11292">
        <ele>610</ele>
        <time>2010-01-01T03:28:56Z</time>
      </trkpt>
      <trkpt lat="43.83573" lon="3.1133">
        <ele>600</ele>
        <time>2010-01-01T03:29:50Z</time>
      </trkpt>
      <trkpt lat="43.83587" lon="3.11358">
        <ele>592</ele>
        <time>2010-01-01T03:30:31Z</time>
      </trkpt>
      <trkpt lat="43.83603" lon="3.11387">
        <ele>579</ele>
        <time>2010-01-01T03:31:14Z</time>
      </trkpt>
      <trkpt lat="43.8361" lon="3.11388">
        <ele>577</ele>
        <time>2010-01-01T03:31:26Z</time>
      </trkpt>
      <trkpt lat="43.83615" lon="3.1138">
        <ele>577</ele>
        <time>2010-01-01T03:31:39Z</time>
      </trkpt>
      <trkpt lat="43.83617" lon="3.11383">
        <ele>576</ele>
        <time>2010-01-01T03:31:44Z</time>
      </trkpt>
      <trkpt lat="43.83618" lon="3.11389">
        <ele>574</ele>
        <time>2010-01-01T03:31:51Z</time>
      </trkpt>
      <trkpt lat="43.83618" lon="3.11403">
        <ele>571</ele>
        <time>2010-01-01T03:32:07Z</time>
      </trkpt>
      <trkpt lat="43.83616" lon="3.11419">
        <ele>567</ele>
        <time>2010-01-01T03:32:27Z</time>
      </trkpt>
      <trkpt lat="43.83611" lon="3.11448">
        <ele>564</ele>
        <time>2010-01-01T03:33:03Z</time>
      </trkpt>
      <trkpt lat="43.83614" lon="3.11502">
        <ele>555</ele>
        <time>2010-01-01T03:34:07Z</time>
      </trkpt>
      <trkpt lat="43.83614" lon="3.11504">
        <ele>555</ele>
        <time>2010-01-01T03:34:10Z</time>
      </trkpt>
      <trkpt lat="43.83623" lon="3.11583">
        <ele>548</ele>
        <time>2010-01-01T03:35:45Z</time>
      </trkpt>
      <trkpt lat="43.83628" lon="3.1161">
        <ele>546</ele>
        <time>2010-01-01T03:36:18Z</time>
      </trkpt>
      <trkpt lat="43.83628" lon="3.11652">
        <ele>544</ele>
        <time>2010-01-01T03:37:09Z</time>
      </trkpt>
      <trkpt lat="43.83632" lon="3.11691">
        <ele>542</ele>
        <time>2010-01-01T03:37:55Z</time>
      </trkpt>
      <trkpt lat="43.83654" lon="3.11795">
        <ele>535</ele>
        <time>2010-01-01T03:40:05Z</time>
      </trkpt>
      <trkpt lat="43.83656" lon="3.11797">
        <ele>535</ele>
        <time>2010-01-01T03:40:10Z</time>
      </trkpt>
    </trkseg>
  </trk>
</gpx>